sensor_id;sensor_type;location;lat;lon;timestamp;temperature;humidity
28161;DHT22;15448;51.956;7.670;2022-08-04T00:02:26;26.10;61.00
28161;DHT22;15448;51.956;7.670;2022-08-04T00:04:57;26.10;61.00
28161;DHT22;15448;51.956;7.670;2022-08-04T00:10:15;26.10;61.20
28161;DHT22;15448;51.956;7.670;2022-08-04T00:12:44;26.10;61.20
28161;DHT22;15448;51.956;7.670;2022-08-04T00:15:14;26.10;61.30
28161;DHT22;15448;51.956;7.670;2022-08-04T00:17:44;26.10;61.40
28161;DHT22;15448;51.956;7.670;2022-08-04T00:20:17;26.10;61.40
28161;DHT22;15448;51.956;7.670;2022-08-04T00:22:45;26.10;61.40
28161;DHT22;15448;51.956;7.670;2022-08-04T00:25:11;26.10;61.50
28161;DHT22;15448;51.956;7.670;2022-08-04T00:27:37;26.10;61.60
28161;DHT22;15448;51.956;7.670;2022-08-04T00:30:04;26.00;61.50
28161;DHT22;15448;51.956;7.670;2022-08-04T00:32:30;26.10;61.60
28161;DHT22;15448;51.956;7.670;2022-08-04T00:34:58;26.10;61.70
28161;DHT22;15448;51.956;7.670;2022-08-04T00:37:25;26.00;61.50
28161;DHT22;15448;51.956;7.670;2022-08-04T00:39:53;26.00;61.60
28161;DHT22;15448;51.956;7.670;2022-08-04T00:42:46;26.00;61.60
28161;DHT22;15448;51.956;7.670;2022-08-04T00:54:00;26.00;61.70
28161;DHT22;15448;51.956;7.670;2022-08-04T00:57:02;26.00;61.80
28161;DHT22;15448;51.956;7.670;2022-08-04T01:00:05;26.00;61.80
28161;DHT22;15448;51.956;7.670;2022-08-04T01:10:50;26.00;61.80
28161;DHT22;15448;51.956;7.670;2022-08-04T01:16:07;25.90;61.80
28161;DHT22;15448;51.956;7.670;2022-08-04T01:19:01;25.90;61.80
28161;DHT22;15448;51.956;7.670;2022-08-04T01:24:25;25.90;61.70
28161;DHT22;15448;51.956;7.670;2022-08-04T01:27:09;25.90;61.80
28161;DHT22;15448;51.956;7.670;2022-08-04T01:30:04;25.90;61.80
28161;DHT22;15448;51.956;7.670;2022-08-04T01:32:31;25.90;61.80
28161;DHT22;15448;51.956;7.670;2022-08-04T01:35:13;25.90;61.80
28161;DHT22;15448;51.956;7.670;2022-08-04T01:38:04;25.90;61.80
28161;DHT22;15448;51.956;7.670;2022-08-04T01:40:37;25.90;61.80
28161;DHT22;15448;51.956;7.670;2022-08-04T01:43:02;25.90;61.80
28161;DHT22;15448;51.956;7.670;2022-08-04T01:45:28;25.90;61.80
28161;DHT22;15448;51.956;7.670;2022-08-04T01:47:55;25.90;61.80
28161;DHT22;15448;51.956;7.670;2022-08-04T01:50:22;25.90;61.70
28161;DHT22;15448;51.956;7.670;2022-08-04T01:52:50;25.90;61.70
28161;DHT22;15448;51.956;7.670;2022-08-04T01:55:16;25.90;61.60
28161;DHT22;15448;51.956;7.670;2022-08-04T01:57:52;25.90;61.60
28161;DHT22;15448;51.956;7.670;2022-08-04T02:00:22;25.80;61.50
28161;DHT22;15448;51.956;7.670;2022-08-04T02:02:49;25.80;61.50
28161;DHT22;15448;51.956;7.670;2022-08-04T02:05:17;25.90;61.60
28161;DHT22;15448;51.956;7.670;2022-08-04T02:19:07;25.90;61.70
28161;DHT22;15448;51.956;7.670;2022-08-04T02:21:35;25.90;61.70
28161;DHT22;15448;51.956;7.670;2022-08-04T02:24:06;25.90;61.70
28161;DHT22;15448;51.956;7.670;2022-08-04T02:26:33;25.80;61.70
28161;DHT22;15448;51.956;7.670;2022-08-04T02:31:56;25.90;61.80
28161;DHT22;15448;51.956;7.670;2022-08-04T02:34:34;25.90;61.80
28161;DHT22;15448;51.956;7.670;2022-08-04T02:37:03;25.90;61.90
28161;DHT22;15448;51.956;7.670;2022-08-04T02:39:32;25.90;61.90
28161;DHT22;15448;51.956;7.670;2022-08-04T02:41:59;25.80;62.00
28161;DHT22;15448;51.956;7.670;2022-08-04T02:44:27;25.90;62.10
28161;DHT22;15448;51.956;7.670;2022-08-04T02:46:54;25.90;62.10
28161;DHT22;15448;51.956;7.670;2022-08-04T02:49:22;25.80;62.00
28161;DHT22;15448;51.956;7.670;2022-08-04T02:51:53;25.90;62.00
28161;DHT22;15448;51.956;7.670;2022-08-04T02:54:40;25.80;62.00
28161;DHT22;15448;51.956;7.670;2022-08-04T02:57:14;25.90;62.00
28161;DHT22;15448;51.956;7.670;2022-08-04T03:05:18;25.90;62.10
28161;DHT22;15448;51.956;7.670;2022-08-04T03:17:20;25.70;61.40
28161;DHT22;15448;51.956;7.670;2022-08-04T03:25:50;25.60;61.30
28161;DHT22;15448;51.956;7.670;2022-08-04T03:49:47;25.40;61.50
28161;DHT22;15448;51.956;7.670;2022-08-04T03:52:55;25.40;61.40
28161;DHT22;15448;51.956;7.670;2022-08-04T03:58:51;25.40;61.60
28161;DHT22;15448;51.956;7.670;2022-08-04T04:10:14;25.40;61.70
28161;DHT22;15448;51.956;7.670;2022-08-04T04:16:06;25.30;61.70
28161;DHT22;15448;51.956;7.670;2022-08-04T04:21:28;25.30;61.80
28161;DHT22;15448;51.956;7.670;2022-08-04T04:29:49;25.30;61.90
28161;DHT22;15448;51.956;7.670;2022-08-04T04:51:15;25.20;62.20
28161;DHT22;15448;51.956;7.670;2022-08-04T04:56:36;25.30;62.30
28161;DHT22;15448;51.956;7.670;2022-08-04T04:59:10;25.30;62.30
28161;DHT22;15448;51.956;7.670;2022-08-04T05:11:06;25.30;62.40
28161;DHT22;15448;51.956;7.670;2022-08-04T05:13:44;25.30;62.60
28161;DHT22;15448;51.956;7.670;2022-08-04T05:16:56;25.20;62.50
28161;DHT22;15448;51.956;7.670;2022-08-04T05:19:31;25.20;62.40
28161;DHT22;15448;51.956;7.670;2022-08-04T05:22:07;25.30;62.50
28161;DHT22;15448;51.956;7.670;2022-08-04T05:24:38;25.30;62.70
28161;DHT22;15448;51.956;7.670;2022-08-04T05:27:11;25.20;62.70
28161;DHT22;15448;51.956;7.670;2022-08-04T05:29:45;25.10;62.60
28161;DHT22;15448;51.956;7.670;2022-08-04T05:32:15;25.20;62.70
28161;DHT22;15448;51.956;7.670;2022-08-04T05:34:48;25.30;62.60
28161;DHT22;15448;51.956;7.670;2022-08-04T05:37:18;25.20;62.60
28161;DHT22;15448;51.956;7.670;2022-08-04T05:39:48;25.20;62.90
28161;DHT22;15448;51.956;7.670;2022-08-04T05:42:18;25.20;62.80
28161;DHT22;15448;51.956;7.670;2022-08-04T05:44:45;25.10;62.80
28161;DHT22;15448;51.956;7.670;2022-08-04T05:47:11;25.20;62.80
28161;DHT22;15448;51.956;7.670;2022-08-04T05:49:38;25.20;62.80
28161;DHT22;15448;51.956;7.670;2022-08-04T05:52:06;25.20;62.80
28161;DHT22;15448;51.956;7.670;2022-08-04T05:54:33;25.20;62.80
28161;DHT22;15448;51.956;7.670;2022-08-04T05:57:02;25.20;63.10
28161;DHT22;15448;51.956;7.670;2022-08-04T05:59:30;25.20;63.20
28161;DHT22;15448;51.956;7.670;2022-08-04T06:01:58;25.30;63.20
28161;DHT22;15448;51.956;7.670;2022-08-04T06:04:34;25.20;63.10
28161;DHT22;15448;51.956;7.670;2022-08-04T06:07:00;25.20;63.10
28161;DHT22;15448;51.956;7.670;2022-08-04T06:09:26;25.20;63.30
28161;DHT22;15448;51.956;7.670;2022-08-04T06:11:52;25.30;63.50
28161;DHT22;15448;51.956;7.670;2022-08-04T06:14:22;25.30;63.40
28161;DHT22;15448;51.956;7.670;2022-08-04T06:16:49;25.30;63.60
28161;DHT22;15448;51.956;7.670;2022-08-04T06:19:17;25.30;63.50
28161;DHT22;15448;51.956;7.670;2022-08-04T06:21:46;25.30;63.70
28161;DHT22;15448;51.956;7.670;2022-08-04T06:24:19;25.30;63.70
28161;DHT22;15448;51.956;7.670;2022-08-04T06:26:48;25.30;63.70
28161;DHT22;15448;51.956;7.670;2022-08-04T06:29:17;25.30;63.60
28161;DHT22;15448;51.956;7.670;2022-08-04T06:31:56;25.30;63.60
28161;DHT22;15448;51.956;7.670;2022-08-04T06:34:25;25.30;63.70
28161;DHT22;15448;51.956;7.670;2022-08-04T06:36:51;25.40;63.90
28161;DHT22;15448;51.956;7.670;2022-08-04T06:39:18;25.30;63.90
28161;DHT22;15448;51.956;7.670;2022-08-04T06:41:45;25.40;64.00
28161;DHT22;15448;51.956;7.670;2022-08-04T06:44:11;25.40;63.70
28161;DHT22;15448;51.956;7.670;2022-08-04T06:46:39;25.40;64.00
28161;DHT22;15448;51.956;7.670;2022-08-04T06:49:06;25.40;64.20
28161;DHT22;15448;51.956;7.670;2022-08-04T06:51:34;25.40;64.20
28161;DHT22;15448;51.956;7.670;2022-08-04T06:54:01;25.40;64.00
28161;DHT22;15448;51.956;7.670;2022-08-04T06:56:28;25.40;63.90
28161;DHT22;15448;51.956;7.670;2022-08-04T06:58:55;25.40;63.80
28161;DHT22;15448;51.956;7.670;2022-08-04T07:01:22;25.40;63.60
28161;DHT22;15448;51.956;7.670;2022-08-04T07:03:49;25.40;63.60
28161;DHT22;15448;51.956;7.670;2022-08-04T07:06:15;25.40;63.70
28161;DHT22;15448;51.956;7.670;2022-08-04T07:08:41;25.40;63.60
28161;DHT22;15448;51.956;7.670;2022-08-04T07:11:07;25.40;63.60
28161;DHT22;15448;51.956;7.670;2022-08-04T07:13:33;25.40;63.60
28161;DHT22;15448;51.956;7.670;2022-08-04T07:16:00;25.40;63.50
28161;DHT22;15448;51.956;7.670;2022-08-04T07:18:26;25.40;63.90
28161;DHT22;15448;51.956;7.670;2022-08-04T07:20:52;25.40;63.60
28161;DHT22;15448;51.956;7.670;2022-08-04T07:23:23;25.00;63.20
28161;DHT22;15448;51.956;7.670;2022-08-04T07:25:50;25.30;65.50
28161;DHT22;15448;51.956;7.670;2022-08-04T07:28:20;25.20;65.40
28161;DHT22;15448;51.956;7.670;2022-08-04T07:30:47;25.20;65.00
28161;DHT22;15448;51.956;7.670;2022-08-04T07:33:17;25.30;64.80
28161;DHT22;15448;51.956;7.670;2022-08-04T07:35:47;25.40;64.90
28161;DHT22;15448;51.956;7.670;2022-08-04T07:38:13;25.40;64.50
28161;DHT22;15448;51.956;7.670;2022-08-04T07:40:39;25.50;64.30
28161;DHT22;15448;51.956;7.670;2022-08-04T07:43:05;25.50;64.40
28161;DHT22;15448;51.956;7.670;2022-08-04T07:45:31;25.50;64.40
28161;DHT22;15448;51.956;7.670;2022-08-04T07:47:57;25.60;64.40
28161;DHT22;15448;51.956;7.670;2022-08-04T07:50:25;25.60;64.50
28161;DHT22;15448;51.956;7.670;2022-08-04T07:52:51;25.60;64.30
28161;DHT22;15448;51.956;7.670;2022-08-04T07:55:17;25.60;64.30
28161;DHT22;15448;51.956;7.670;2022-08-04T07:57:43;25.60;64.10
28161;DHT22;15448;51.956;7.670;2022-08-04T08:00:10;25.70;64.40
28161;DHT22;15448;51.956;7.670;2022-08-04T08:02:37;25.60;64.00
28161;DHT22;15448;51.956;7.670;2022-08-04T08:05:03;25.50;63.90
28161;DHT22;15448;51.956;7.670;2022-08-04T08:07:29;25.60;63.80
28161;DHT22;15448;51.956;7.670;2022-08-04T08:09:55;25.70;64.10
28161;DHT22;15448;51.956;7.670;2022-08-04T08:12:20;25.80;63.30
28161;DHT22;15448;51.956;7.670;2022-08-04T08:14:46;25.70;63.20
28161;DHT22;15448;51.956;7.670;2022-08-04T08:17:12;25.80;62.80
28161;DHT22;15448;51.956;7.670;2022-08-04T08:19:38;25.80;62.90
28161;DHT22;15448;51.956;7.670;2022-08-04T08:22:04;25.90;62.40
28161;DHT22;15448;51.956;7.670;2022-08-04T08:24:33;25.90;62.00
28161;DHT22;15448;51.956;7.670;2022-08-04T08:27:00;25.90;62.30
28161;DHT22;15448;51.956;7.670;2022-08-04T08:29:29;26.00;61.50
28161;DHT22;15448;51.956;7.670;2022-08-04T08:31:55;25.90;61.50
28161;DHT22;15448;51.956;7.670;2022-08-04T08:34:20;25.90;61.70
28161;DHT22;15448;51.956;7.670;2022-08-04T08:36:56;25.90;61.10
28161;DHT22;15448;51.956;7.670;2022-08-04T08:39:27;26.00;61.10
28161;DHT22;15448;51.956;7.670;2022-08-04T08:45:02;26.00;61.30
28161;DHT22;15448;51.956;7.670;2022-08-04T08:53:20;26.00;61.20
28161;DHT22;15448;51.956;7.670;2022-08-04T08:56:16;26.20;60.80
28161;DHT22;15448;51.956;7.670;2022-08-04T09:12:35;26.10;61.10
28161;DHT22;15448;51.956;7.670;2022-08-04T09:18:15;26.40;60.00
28161;DHT22;15448;51.956;7.670;2022-08-04T09:20:49;26.40;60.10
28161;DHT22;15448;51.956;7.670;2022-08-04T09:23:36;26.20;60.50
28161;DHT22;15448;51.956;7.670;2022-08-04T09:26:10;26.40;59.80
28161;DHT22;15448;51.956;7.670;2022-08-04T09:29:10;26.40;59.70
28161;DHT22;15448;51.956;7.670;2022-08-04T09:37:37;26.20;60.10
28161;DHT22;15448;51.956;7.670;2022-08-04T09:45:32;26.20;60.40
28161;DHT22;15448;51.956;7.670;2022-08-04T09:48:24;26.20;60.30
28161;DHT22;15448;51.956;7.670;2022-08-04T09:50:57;26.20;60.30
28161;DHT22;15448;51.956;7.670;2022-08-04T09:53:53;26.40;60.20
28161;DHT22;15448;51.956;7.670;2022-08-04T09:59:10;26.20;60.30
28161;DHT22;15448;51.956;7.670;2022-08-04T10:01:43;26.20;60.60
28161;DHT22;15448;51.956;7.670;2022-08-04T10:04:12;26.30;60.40
28161;DHT22;15448;51.956;7.670;2022-08-04T10:06:55;26.20;60.50
28161;DHT22;15448;51.956;7.670;2022-08-04T10:10:11;26.40;60.10
28161;DHT22;15448;51.956;7.670;2022-08-04T10:13:05;26.40;60.20
28161;DHT22;15448;51.956;7.670;2022-08-04T10:15:42;26.60;59.10
28161;DHT22;15448;51.956;7.670;2022-08-04T10:21:07;26.40;59.50
28161;DHT22;15448;51.956;7.670;2022-08-04T10:31:41;26.50;58.90
28161;DHT22;15448;51.956;7.670;2022-08-04T10:34:13;26.40;59.50
28161;DHT22;15448;51.956;7.670;2022-08-04T10:36:56;26.40;59.30
28161;DHT22;15448;51.956;7.670;2022-08-04T10:39:29;26.40;59.10
28161;DHT22;15448;51.956;7.670;2022-08-04T10:44:51;26.50;58.60
28161;DHT22;15448;51.956;7.670;2022-08-04T10:47:19;26.60;58.50
28161;DHT22;15448;51.956;7.670;2022-08-04T10:49:53;26.60;58.20
28161;DHT22;15448;51.956;7.670;2022-08-04T10:52:41;26.50;58.60
28161;DHT22;15448;51.956;7.670;2022-08-04T10:55:17;26.70;58.60
28161;DHT22;15448;51.956;7.670;2022-08-04T10:57:49;26.90;57.80
28161;DHT22;15448;51.956;7.670;2022-08-04T11:00:23;26.90;57.80
28161;DHT22;15448;51.956;7.670;2022-08-04T11:03:08;26.80;57.90
28161;DHT22;15448;51.956;7.670;2022-08-04T11:05:54;26.60;58.40
28161;DHT22;15448;51.956;7.670;2022-08-04T11:08:28;26.80;58.50
28161;DHT22;15448;51.956;7.670;2022-08-04T11:11:15;26.60;58.60
28161;DHT22;15448;51.956;7.670;2022-08-04T11:13:46;26.60;58.90
28161;DHT22;15448;51.956;7.670;2022-08-04T11:16:38;26.70;58.70
28161;DHT22;15448;51.956;7.670;2022-08-04T11:19:16;26.70;58.50
28161;DHT22;15448;51.956;7.670;2022-08-04T11:21:55;26.70;58.50
28161;DHT22;15448;51.956;7.670;2022-08-04T11:24:36;26.70;58.70
28161;DHT22;15448;51.956;7.670;2022-08-04T11:27:33;26.80;58.30
28161;DHT22;15448;51.956;7.670;2022-08-04T11:30:09;26.70;58.70
28161;DHT22;15448;51.956;7.670;2022-08-04T11:35:33;26.70;58.80
28161;DHT22;15448;51.956;7.670;2022-08-04T11:40:42;26.70;58.20
28161;DHT22;15448;51.956;7.670;2022-08-04T11:43:23;26.80;58.30
28161;DHT22;15448;51.956;7.670;2022-08-04T11:45:54;26.90;57.90
28161;DHT22;15448;51.956;7.670;2022-08-04T11:48:52;26.90;57.60
28161;DHT22;15448;51.956;7.670;2022-08-04T11:51:21;26.90;57.60
28161;DHT22;15448;51.956;7.670;2022-08-04T11:53:48;26.90;57.70
28161;DHT22;15448;51.956;7.670;2022-08-04T11:56:14;26.90;57.60
28161;DHT22;15448;51.956;7.670;2022-08-04T11:58:41;26.80;57.60
28161;DHT22;15448;51.956;7.670;2022-08-04T12:04:11;26.80;57.70
28161;DHT22;15448;51.956;7.670;2022-08-04T12:06:48;27.00;57.10
28161;DHT22;15448;51.956;7.670;2022-08-04T12:09:27;27.00;56.80
28161;DHT22;15448;51.956;7.670;2022-08-04T12:12:17;26.90;57.10
28161;DHT22;15448;51.956;7.670;2022-08-04T12:15:22;26.90;57.20
28161;DHT22;15448;51.956;7.670;2022-08-04T12:20:35;26.60;57.80
28161;DHT22;15448;51.956;7.670;2022-08-04T12:23:05;26.60;58.10
28161;DHT22;15448;51.956;7.670;2022-08-04T12:25:40;26.40;58.50
28161;DHT22;15448;51.956;7.670;2022-08-04T12:28:14;26.30;58.80
28161;DHT22;15448;51.956;7.670;2022-08-04T12:30:51;26.30;58.70
28161;DHT22;15448;51.956;7.670;2022-08-04T12:33:41;26.10;58.50
28161;DHT22;15448;51.956;7.670;2022-08-04T12:36:26;26.20;58.60
28161;DHT22;15448;51.956;7.670;2022-08-04T12:39:03;26.20;59.30
28161;DHT22;15448;51.956;7.670;2022-08-04T12:41:39;26.20;58.70
28161;DHT22;15448;51.956;7.670;2022-08-04T12:44:10;26.20;58.80
28161;DHT22;15448;51.956;7.670;2022-08-04T12:46:36;26.20;58.70
28161;DHT22;15448;51.956;7.670;2022-08-04T12:49:03;26.20;58.80
28161;DHT22;15448;51.956;7.670;2022-08-04T12:51:37;26.30;58.80
28161;DHT22;15448;51.956;7.670;2022-08-04T12:54:04;26.30;58.80
28161;DHT22;15448;51.956;7.670;2022-08-04T12:56:31;26.30;58.60
28161;DHT22;15448;51.956;7.670;2022-08-04T12:59:06;26.60;57.90
28161;DHT22;15448;51.956;7.670;2022-08-04T13:01:33;26.70;57.50
28161;DHT22;15448;51.956;7.670;2022-08-04T13:04:03;26.80;57.30
28161;DHT22;15448;51.956;7.670;2022-08-04T13:06:35;26.80;57.70
28161;DHT22;15448;51.956;7.670;2022-08-04T13:09:03;26.80;58.10
28161;DHT22;15448;51.956;7.670;2022-08-04T13:11:38;26.80;58.10
28161;DHT22;15448;51.956;7.670;2022-08-04T13:14:05;26.80;58.30
28161;DHT22;15448;51.956;7.670;2022-08-04T13:16:32;26.80;58.30
28161;DHT22;15448;51.956;7.670;2022-08-04T13:18:59;26.80;58.50
28161;DHT22;15448;51.956;7.670;2022-08-04T13:21:27;26.70;58.70
28161;DHT22;15448;51.956;7.670;2022-08-04T13:24:13;26.80;58.70
28161;DHT22;15448;51.956;7.670;2022-08-04T13:26:48;26.70;58.70
28161;DHT22;15448;51.956;7.670;2022-08-04T13:29:16;26.70;58.90
28161;DHT22;15448;51.956;7.670;2022-08-04T13:31:43;26.70;59.10
28161;DHT22;15448;51.956;7.670;2022-08-04T13:34:10;26.70;59.00
28161;DHT22;15448;51.956;7.670;2022-08-04T13:36:37;26.70;59.20
28161;DHT22;15448;51.956;7.670;2022-08-04T13:39:15;26.60;59.20
28161;DHT22;15448;51.956;7.670;2022-08-04T13:41:45;26.70;59.30
28161;DHT22;15448;51.956;7.670;2022-08-04T13:44:11;26.70;59.30
28161;DHT22;15448;51.956;7.670;2022-08-04T13:46:46;26.70;59.50
28161;DHT22;15448;51.956;7.670;2022-08-04T13:49:16;26.70;59.50
28161;DHT22;15448;51.956;7.670;2022-08-04T13:54:15;26.80;59.80
28161;DHT22;15448;51.956;7.670;2022-08-04T13:56:50;26.80;59.80
28161;DHT22;15448;51.956;7.670;2022-08-04T13:59:18;26.70;59.90
28161;DHT22;15448;51.956;7.670;2022-08-04T14:02:02;26.70;60.10
28161;DHT22;15448;51.956;7.670;2022-08-04T14:04:31;26.80;60.20
28161;DHT22;15448;51.956;7.670;2022-08-04T14:07:09;26.80;60.20
28161;DHT22;15448;51.956;7.670;2022-08-04T14:09:37;26.80;60.20
28161;DHT22;15448;51.956;7.670;2022-08-04T14:14:33;26.80;60.20
28161;DHT22;15448;51.956;7.670;2022-08-04T14:17:07;26.70;60.30
28161;DHT22;15448;51.956;7.670;2022-08-04T14:25:14;26.90;60.60
28161;DHT22;15448;51.956;7.670;2022-08-04T14:27:43;26.80;60.60
28161;DHT22;15448;51.956;7.670;2022-08-04T14:30:24;26.90;60.70
28161;DHT22;15448;51.956;7.670;2022-08-04T14:33:09;27.00;60.70
28161;DHT22;15448;51.956;7.670;2022-08-04T14:35:36;27.00;61.00
28161;DHT22;15448;51.956;7.670;2022-08-04T14:38:08;27.00;61.00
28161;DHT22;15448;51.956;7.670;2022-08-04T14:40:36;27.00;61.20
28161;DHT22;15448;51.956;7.670;2022-08-04T14:43:02;27.10;61.90
28161;DHT22;15448;51.956;7.670;2022-08-04T14:45:42;27.10;61.80
28161;DHT22;15448;51.956;7.670;2022-08-04T14:48:13;27.20;62.30
28161;DHT22;15448;51.956;7.670;2022-08-04T14:50:43;27.30;62.30
28161;DHT22;15448;51.956;7.670;2022-08-04T14:53:20;27.30;62.50
28161;DHT22;15448;51.956;7.670;2022-08-04T14:55:48;27.30;62.60
28161;DHT22;15448;51.956;7.670;2022-08-04T14:58:25;27.30;62.50
28161;DHT22;15448;51.956;7.670;2022-08-04T15:00:56;27.30;62.30
28161;DHT22;15448;51.956;7.670;2022-08-04T15:03:22;27.20;62.00
28161;DHT22;15448;51.956;7.670;2022-08-04T15:05:49;27.30;61.90
28161;DHT22;15448;51.956;7.670;2022-08-04T15:08:15;27.30;62.00
28161;DHT22;15448;51.956;7.670;2022-08-04T15:10:42;27.30;61.90
28161;DHT22;15448;51.956;7.670;2022-08-04T15:13:09;27.40;61.80
28161;DHT22;15448;51.956;7.670;2022-08-04T15:15:38;27.30;61.30
28161;DHT22;15448;51.956;7.670;2022-08-04T15:18:09;27.30;61.30
28161;DHT22;15448;51.956;7.670;2022-08-04T15:20:36;27.40;61.30
28161;DHT22;15448;51.956;7.670;2022-08-04T15:23:03;27.40;61.20
28161;DHT22;15448;51.956;7.670;2022-08-04T15:25:43;27.40;61.30
28161;DHT22;15448;51.956;7.670;2022-08-04T15:28:18;27.40;61.00
28161;DHT22;15448;51.956;7.670;2022-08-04T15:30:48;27.30;60.60
28161;DHT22;15448;51.956;7.670;2022-08-04T15:33:15;27.20;60.40
28161;DHT22;15448;51.956;7.670;2022-08-04T15:35:48;27.20;60.50
28161;DHT22;15448;51.956;7.670;2022-08-04T15:38:28;27.30;60.60
28161;DHT22;15448;51.956;7.670;2022-08-04T15:41:13;27.20;60.60
28161;DHT22;15448;51.956;7.670;2022-08-04T15:44:20;27.30;60.60
28161;DHT22;15448;51.956;7.670;2022-08-04T15:47:07;27.30;61.40
28161;DHT22;15448;51.956;7.670;2022-08-04T15:49:33;27.30;60.70
28161;DHT22;15448;51.956;7.670;2022-08-04T15:52:05;27.20;60.70
28161;DHT22;15448;51.956;7.670;2022-08-04T15:54:31;27.20;61.00
28161;DHT22;15448;51.956;7.670;2022-08-04T15:56:56;27.20;61.10
28161;DHT22;15448;51.956;7.670;2022-08-04T16:00:01;27.20;61.10
28161;DHT22;15448;51.956;7.670;2022-08-04T16:05:28;27.20;61.40
28161;DHT22;15448;51.956;7.670;2022-08-04T16:12:58;27.10;61.50
28161;DHT22;15448;51.956;7.670;2022-08-04T16:20:47;27.00;61.80
28161;DHT22;15448;51.956;7.670;2022-08-04T16:25:52;26.90;62.20
28161;DHT22;15448;51.956;7.670;2022-08-04T16:28:38;26.90;62.20
28161;DHT22;15448;51.956;7.670;2022-08-04T16:31:10;26.90;62.20
28161;DHT22;15448;51.956;7.670;2022-08-04T16:33:36;26.90;62.20
28161;DHT22;15448;51.956;7.670;2022-08-04T16:36:02;26.90;62.20
28161;DHT22;15448;51.956;7.670;2022-08-04T16:38:30;26.80;62.20
28161;DHT22;15448;51.956;7.670;2022-08-04T16:40:57;26.90;62.20
28161;DHT22;15448;51.956;7.670;2022-08-04T16:43:30;26.80;62.10
28161;DHT22;15448;51.956;7.670;2022-08-04T16:46:03;26.80;62.10
28161;DHT22;15448;51.956;7.670;2022-08-04T16:48:33;26.90;62.00
28161;DHT22;15448;51.956;7.670;2022-08-04T16:53:31;26.80;62.00
28161;DHT22;15448;51.956;7.670;2022-08-04T16:55:57;26.90;62.20
28161;DHT22;15448;51.956;7.670;2022-08-04T16:58:28;26.90;62.10
28161;DHT22;15448;51.956;7.670;2022-08-04T17:00:54;26.80;62.10
28161;DHT22;15448;51.956;7.670;2022-08-04T17:03:20;26.90;62.20
28161;DHT22;15448;51.956;7.670;2022-08-04T17:05:46;26.80;62.20
28161;DHT22;15448;51.956;7.670;2022-08-04T17:08:12;26.70;62.80
28161;DHT22;15448;51.956;7.670;2022-08-04T17:10:43;26.80;62.00
28161;DHT22;15448;51.956;7.670;2022-08-04T17:16:02;26.80;62.00
28161;DHT22;15448;51.956;7.670;2022-08-04T17:18:37;26.80;61.80
28161;DHT22;15448;51.956;7.670;2022-08-04T17:21:08;26.70;61.80
28161;DHT22;15448;51.956;7.670;2022-08-04T17:23:39;26.80;61.80
28161;DHT22;15448;51.956;7.670;2022-08-04T17:26:08;26.80;61.70
28161;DHT22;15448;51.956;7.670;2022-08-04T17:28:34;26.80;61.80
28161;DHT22;15448;51.956;7.670;2022-08-04T17:31:03;26.70;61.70
28161;DHT22;15448;51.956;7.670;2022-08-04T17:33:29;26.80;61.80
28161;DHT22;15448;51.956;7.670;2022-08-04T17:35:57;26.80;61.70
28161;DHT22;15448;51.956;7.670;2022-08-04T17:38:29;26.80;61.80
28161;DHT22;15448;51.956;7.670;2022-08-04T17:40:58;26.70;61.80
28161;DHT22;15448;51.956;7.670;2022-08-04T17:43:55;26.70;61.90
28161;DHT22;15448;51.956;7.670;2022-08-04T17:46:25;26.80;61.70
28161;DHT22;15448;51.956;7.670;2022-08-04T17:51:43;26.80;61.60
28161;DHT22;15448;51.956;7.670;2022-08-04T17:54:13;26.70;61.70
28161;DHT22;15448;51.956;7.670;2022-08-04T17:56:44;26.70;61.80
28161;DHT22;15448;51.956;7.670;2022-08-04T18:04:48;26.60;61.80
28161;DHT22;15448;51.956;7.670;2022-08-04T18:07:22;26.60;61.90
28161;DHT22;15448;51.956;7.670;2022-08-04T18:12:26;26.60;62.10
28161;DHT22;15448;51.956;7.670;2022-08-04T18:14:54;26.50;62.10
28161;DHT22;15448;51.956;7.670;2022-08-04T18:17:35;26.60;62.30
28161;DHT22;15448;51.956;7.670;2022-08-04T18:22:29;26.50;62.40
28161;DHT22;15448;51.956;7.670;2022-08-04T18:24:55;26.50;62.50
28161;DHT22;15448;51.956;7.670;2022-08-04T18:27:26;26.60;62.70
28161;DHT22;15448;51.956;7.670;2022-08-04T18:29:53;26.50;62.90
28161;DHT22;15448;51.956;7.670;2022-08-04T18:32:19;26.50;62.80
28161;DHT22;15448;51.956;7.670;2022-08-04T18:34:48;26.50;63.00
28161;DHT22;15448;51.956;7.670;2022-08-04T18:37:14;26.50;62.90
28161;DHT22;15448;51.956;7.670;2022-08-04T18:39:39;26.50;63.00
28161;DHT22;15448;51.956;7.670;2022-08-04T18:42:05;26.50;63.00
28161;DHT22;15448;51.956;7.670;2022-08-04T18:44:31;26.50;63.00
28161;DHT22;15448;51.956;7.670;2022-08-04T18:46:58;26.40;63.30
28161;DHT22;15448;51.956;7.670;2022-08-04T18:49:24;26.50;63.30
28161;DHT22;15448;51.956;7.670;2022-08-04T18:51:53;26.50;63.50
28161;DHT22;15448;51.956;7.670;2022-08-04T18:54:20;26.50;63.50
28161;DHT22;15448;51.956;7.670;2022-08-04T18:56:48;26.50;63.60
28161;DHT22;15448;51.956;7.670;2022-08-04T18:59:14;26.50;63.60
28161;DHT22;15448;51.956;7.670;2022-08-04T19:01:39;26.40;63.60
28161;DHT22;15448;51.956;7.670;2022-08-04T19:04:05;26.50;63.80
28161;DHT22;15448;51.956;7.670;2022-08-04T19:06:32;26.50;63.70
28161;DHT22;15448;51.956;7.670;2022-08-04T19:08:59;26.50;63.70
28161;DHT22;15448;51.956;7.670;2022-08-04T19:11:25;26.40;63.70
28161;DHT22;15448;51.956;7.670;2022-08-04T19:13:51;26.50;63.80
28161;DHT22;15448;51.956;7.670;2022-08-04T19:16:17;26.40;63.90
28161;DHT22;15448;51.956;7.670;2022-08-04T19:18:42;26.30;64.00
28161;DHT22;15448;51.956;7.670;2022-08-04T19:21:08;26.40;64.20
28161;DHT22;15448;51.956;7.670;2022-08-04T19:23:34;26.40;64.30
28161;DHT22;15448;51.956;7.670;2022-08-04T19:26:00;26.40;64.20
28161;DHT22;15448;51.956;7.670;2022-08-04T19:28:27;26.40;64.30
28161;DHT22;15448;51.956;7.670;2022-08-04T19:30:53;26.40;64.40
28161;DHT22;15448;51.956;7.670;2022-08-04T19:33:20;26.40;64.40
28161;DHT22;15448;51.956;7.670;2022-08-04T19:35:45;26.40;64.40
28161;DHT22;15448;51.956;7.670;2022-08-04T19:38:11;26.40;64.60
28161;DHT22;15448;51.956;7.670;2022-08-04T19:40:38;26.40;64.70
28161;DHT22;15448;51.956;7.670;2022-08-04T19:43:05;26.40;64.60
28161;DHT22;15448;51.956;7.670;2022-08-04T19:45:31;26.40;64.70
28161;DHT22;15448;51.956;7.670;2022-08-04T19:47:56;26.40;64.70
28161;DHT22;15448;51.956;7.670;2022-08-04T19:50:23;26.40;64.70
28161;DHT22;15448;51.956;7.670;2022-08-04T19:52:48;26.40;64.70
28161;DHT22;15448;51.956;7.670;2022-08-04T19:55:14;26.40;64.70
28161;DHT22;15448;51.956;7.670;2022-08-04T19:57:40;26.30;64.70
28161;DHT22;15448;51.956;7.670;2022-08-04T20:00:09;26.30;64.80
28161;DHT22;15448;51.956;7.670;2022-08-04T20:02:35;26.30;64.70
28161;DHT22;15448;51.956;7.670;2022-08-04T20:05:00;26.30;64.80
28161;DHT22;15448;51.956;7.670;2022-08-04T20:07:26;26.30;64.90